sensor_id;sensor_type;location;lat;lon;timestamp;P1;durP1;ratioP1;P2;durP2;ratioP2
48629;SDS011;34426;52.180;4.462;2023-06-26T00:00:53;7.00;;;5.28;;
48629;SDS011;34426;52.180;4.462;2023-06-26T00:03:23;13.98;;;5.28;;
48629;SDS011;34426;52.180;4.462;2023-06-26T00:05:50;9.50;;;4.60;;
48629;SDS011;34426;52.180;4.462;2023-06-26T00:08:18;16.67;;;5.30;;
48629;SDS011;34426;52.180;4.462;2023-06-26T00:10:49;9.82;;;4.70;;
48629;SDS011;34426;52.180;4.462;2023-06-26T00:13:18;7.88;;;5.00;;
48629;SDS011;34426;52.180;4.462;2023-06-26T00:15:48;12.05;;;5.15;;
48629;SDS011;34426;52.180;4.462;2023-06-26T00:18:16;13.38;;;4.82;;
48629;SDS011;34426;52.180;4.462;2023-06-26T00:20:43;21.52;;;6.57;;
48629;SDS011;34426;52.180;4.462;2023-06-26T00:23:12;14.38;;;5.53;;
48629;SDS011;34426;52.180;4.462;2023-06-26T00:25:42;13.93;;;5.40;;
48629;SDS011;34426;52.180;4.462;2023-06-26T00:28:11;18.02;;;6.35;;
48629;SDS011;34426;52.180;4.462;2023-06-26T00:30:39;13.40;;;4.90;;
48629;SDS011;34426;52.180;4.462;2023-06-26T00:33:07;12.68;;;4.88;;
48629;SDS011;34426;52.180;4.462;2023-06-26T00:35:34;19.98;;;5.32;;
48629;SDS011;34426;52.180;4.462;2023-06-26T00:38:05;17.20;;;5.25;;
48629;SDS011;34426;52.180;4.462;2023-06-26T00:40:41;18.20;;;5.13;;
48629;SDS011;34426;52.180;4.462;2023-06-26T00:43:11;14.57;;;4.85;;
48629;SDS011;34426;52.180;4.462;2023-06-26T00:45:40;14.55;;;5.55;;
48629;SDS011;34426;52.180;4.462;2023-06-26T00:48:09;13.50;;;5.18;;
48629;SDS011;34426;52.180;4.462;2023-06-26T00:50:38;17.13;;;5.47;;
48629;SDS011;34426;52.180;4.462;2023-06-26T00:53:07;19.08;;;5.97;;
48629;SDS011;34426;52.180;4.462;2023-06-26T00:55:36;17.33;;;5.43;;
48629;SDS011;34426;52.180;4.462;2023-06-26T00:58:07;18.87;;;5.23;;
48629;SDS011;34426;52.180;4.462;2023-06-26T01:00:40;17.73;;;5.78;;
48629;SDS011;34426;52.180;4.462;2023-06-26T01:03:14;28.20;;;5.57;;
48629;SDS011;34426;52.180;4.462;2023-06-26T01:05:44;25.35;;;5.97;;
48629;SDS011;34426;52.180;4.462;2023-06-26T01:08:13;24.77;;;5.57;;
48629;SDS011;34426;52.180;4.462;2023-06-26T01:10:42;17.17;;;5.60;;
48629;SDS011;34426;52.180;4.462;2023-06-26T01:13:19;21.27;;;6.22;;
48629;SDS011;34426;52.180;4.462;2023-06-26T01:15:49;18.02;;;5.25;;
48629;SDS011;34426;52.180;4.462;2023-06-26T01:18:25;28.33;;;7.10;;
48629;SDS011;34426;52.180;4.462;2023-06-26T01:20:55;21.50;;;5.80;;
48629;SDS011;34426;52.180;4.462;2023-06-26T01:23:37;25.80;;;6.75;;
48629;SDS011;34426;52.180;4.462;2023-06-26T01:26:20;20.23;;;6.00;;
48629;SDS011;34426;52.180;4.462;2023-06-26T01:28:49;24.23;;;6.20;;
48629;SDS011;34426;52.180;4.462;2023-06-26T01:31:21;28.35;;;6.88;;
48629;SDS011;34426;52.180;4.462;2023-06-26T01:33:52;25.08;;;6.70;;
48629;SDS011;34426;52.180;4.462;2023-06-26T01:36:23;34.47;;;7.68;;
48629;SDS011;34426;52.180;4.462;2023-06-26T01:38:54;30.27;;;7.43;;
48629;SDS011;34426;52.180;4.462;2023-06-26T01:41:26;41.20;;;8.52;;
48629;SDS011;34426;52.180;4.462;2023-06-26T01:44:00;28.73;;;8.50;;
48629;SDS011;34426;52.180;4.462;2023-06-26T01:46:35;38.65;;;8.15;;
48629;SDS011;34426;52.180;4.462;2023-06-26T01:49:14;37.00;;;8.35;;
48629;SDS011;34426;52.180;4.462;2023-06-26T01:51:47;29.80;;;7.25;;
48629;SDS011;34426;52.180;4.462;2023-06-26T01:54:21;29.63;;;9.40;;
48629;SDS011;34426;52.180;4.462;2023-06-26T01:57:01;31.58;;;7.88;;
48629;SDS011;34426;52.180;4.462;2023-06-26T01:59:32;28.98;;;8.15;;
48629;SDS011;34426;52.180;4.462;2023-06-26T02:02:00;33.08;;;7.63;;
48629;SDS011;34426;52.180;4.462;2023-06-26T02:04:28;36.05;;;8.75;;
48629;SDS011;34426;52.180;4.462;2023-06-26T02:06:58;30.88;;;7.97;;
48629;SDS011;34426;52.180;4.462;2023-06-26T02:09:26;33.92;;;8.25;;
48629;SDS011;34426;52.180;4.462;2023-06-26T02:11:56;42.65;;;8.65;;
48629;SDS011;34426;52.180;4.462;2023-06-26T02:14:32;43.88;;;8.85;;
48629;SDS011;34426;52.180;4.462;2023-06-26T02:17:00;40.88;;;9.82;;
48629;SDS011;34426;52.180;4.462;2023-06-26T02:19:28;34.20;;;8.85;;
48629;SDS011;34426;52.180;4.462;2023-06-26T02:21:55;34.42;;;9.32;;
48629;SDS011;34426;52.180;4.462;2023-06-26T02:24:23;32.55;;;9.52;;
48629;SDS011;34426;52.180;4.462;2023-06-26T02:26:51;33.45;;;8.32;;
48629;SDS011;34426;52.180;4.462;2023-06-26T02:29:21;37.38;;;8.10;;
48629;SDS011;34426;52.180;4.462;2023-06-26T02:31:48;41.20;;;8.55;;
48629;SDS011;34426;52.180;4.462;2023-06-26T02:34:15;35.75;;;8.20;;
48629;SDS011;34426;52.180;4.462;2023-06-26T02:36:46;42.95;;;8.27;;
48629;SDS011;34426;52.180;4.462;2023-06-26T02:39:14;35.67;;;8.27;;
48629;SDS011;34426;52.180;4.462;2023-06-26T02:41:44;28.70;;;8.35;;
48629;SDS011;34426;52.180;4.462;2023-06-26T02:44:12;32.85;;;9.15;;
48629;SDS011;34426;52.180;4.462;2023-06-26T02:46:42;40.00;;;8.52;;
48629;SDS011;34426;52.180;4.462;2023-06-26T02:49:10;28.13;;;7.63;;
48629;SDS011;34426;52.180;4.462;2023-06-26T02:51:37;36.60;;;9.80;;
48629;SDS011;34426;52.180;4.462;2023-06-26T02:54:04;37.08;;;9.13;;
48629;SDS011;34426;52.180;4.462;2023-06-26T02:56:32;38.13;;;9.30;;
48629;SDS011;34426;52.180;4.462;2023-06-26T02:59:00;39.25;;;8.90;;
48629;SDS011;34426;52.180;4.462;2023-06-26T03:01:35;32.78;;;8.13;;
48629;SDS011;34426;52.180;4.462;2023-06-26T03:04:06;28.80;;;8.07;;
48629;SDS011;34426;52.180;4.462;2023-06-26T03:06:34;32.20;;;9.00;;
48629;SDS011;34426;52.180;4.462;2023-06-26T03:09:04;34.42;;;8.07;;
48629;SDS011;34426;52.180;4.462;2023-06-26T03:11:32;28.02;;;7.45;;
48629;SDS011;34426;52.180;4.462;2023-06-26T03:13:59;32.70;;;7.65;;
48629;SDS011;34426;52.180;4.462;2023-06-26T03:16:32;26.13;;;7.30;;
48629;SDS011;34426;52.180;4.462;2023-06-26T03:19:00;32.72;;;6.85;;
48629;SDS011;34426;52.180;4.462;2023-06-26T03:21:29;25.10;;;7.32;;
48629;SDS011;34426;52.180;4.462;2023-06-26T03:23:58;32.35;;;7.60;;
48629;SDS011;34426;52.180;4.462;2023-06-26T03:26:25;24.83;;;6.78;;
48629;SDS011;34426;52.180;4.462;2023-06-26T03:28:59;24.02;;;7.25;;
48629;SDS011;34426;52.180;4.462;2023-06-26T03:31:30;29.77;;;7.32;;
48629;SDS011;34426;52.180;4.462;2023-06-26T03:33:59;30.50;;;7.35;;
48629;SDS011;34426;52.180;4.462;2023-06-26T03:36:29;30.30;;;7.50;;
48629;SDS011;34426;52.180;4.462;2023-06-26T03:38:56;22.15;;;6.25;;
48629;SDS011;34426;52.180;4.462;2023-06-26T03:41:24;25.48;;;7.30;;
48629;SDS011;34426;52.180;4.462;2023-06-26T03:43:51;30.67;;;7.25;;
48629;SDS011;34426;52.180;4.462;2023-06-26T03:46:19;26.77;;;7.30;;
48629;SDS011;34426;52.180;4.462;2023-06-26T03:48:48;26.27;;;7.25;;
48629;SDS011;34426;52.180;4.462;2023-06-26T03:51:15;21.85;;;6.13;;
48629;SDS011;34426;52.180;4.462;2023-06-26T03:53:44;20.52;;;6.10;;
48629;SDS011;34426;52.180;4.462;2023-06-26T03:56:15;23.75;;;6.53;;
48629;SDS011;34426;52.180;4.462;2023-06-26T03:58:45;23.80;;;6.22;;
48629;SDS011;34426;52.180;4.462;2023-06-26T04:01:15;22.25;;;6.45;;
48629;SDS011;34426;52.180;4.462;2023-06-26T04:03:47;20.50;;;5.50;;
48629;SDS011;34426;52.180;4.462;2023-06-26T04:06:14;18.80;;;5.88;;
48629;SDS011;34426;52.180;4.462;2023-06-26T04:08:42;17.05;;;5.07;;
48629;SDS011;34426;52.180;4.462;2023-06-26T04:11:11;18.25;;;5.60;;
48629;SDS011;34426;52.180;4.462;2023-06-26T04:13:39;22.30;;;5.43;;
48629;SDS011;34426;52.180;4.462;2023-06-26T04:16:07;15.48;;;4.43;;
48629;SDS011;34426;52.180;4.462;2023-06-26T04:18:39;11.55;;;4.25;;
48629;SDS011;34426;52.180;4.462;2023-06-26T04:21:07;15.40;;;4.38;;
48629;SDS011;34426;52.180;4.462;2023-06-26T04:23:38;9.60;;;3.13;;
48629;SDS011;34426;52.180;4.462;2023-06-26T04:26:08;11.90;;;3.40;;
48629;SDS011;34426;52.180;4.462;2023-06-26T04:28:37;10.02;;;3.17;;
48629;SDS011;34426;52.180;4.462;2023-06-26T04:31:07;9.32;;;3.28;;
48629;SDS011;34426;52.180;4.462;2023-06-26T04:33:35;10.45;;;2.90;;
48629;SDS011;34426;52.180;4.462;2023-06-26T04:36:09;8.70;;;3.35;;
48629;SDS011;34426;52.180;4.462;2023-06-26T04:38:36;9.02;;;3.28;;
48629;SDS011;34426;52.180;4.462;2023-06-26T04:41:04;9.30;;;3.42;;
48629;SDS011;34426;52.180;4.462;2023-06-26T04:43:34;10.45;;;3.40;;
48629;SDS011;34426;52.180;4.462;2023-06-26T04:46:02;13.93;;;4.57;;
48629;SDS011;34426;52.180;4.462;2023-06-26T04:48:32;9.43;;;3.13;;
48629;SDS011;34426;52.180;4.462;2023-06-26T04:51:02;8.73;;;2.95;;
48629;SDS011;34426;52.180;4.462;2023-06-26T04:53:30;8.88;;;3.17;;
48629;SDS011;34426;52.180;4.462;2023-06-26T04:55:58;12.57;;;3.88;;
48629;SDS011;34426;52.180;4.462;2023-06-26T04:58:28;15.25;;;3.97;;
48629;SDS011;34426;52.180;4.462;2023-06-26T05:00:58;14.15;;;4.38;;
48629;SDS011;34426;52.180;4.462;2023-06-26T05:03:25;13.75;;;4.55;;
48629;SDS011;34426;52.180;4.462;2023-06-26T05:05:53;16.77;;;4.93;;
48629;SDS011;34426;52.180;4.462;2023-06-26T05:08:24;15.35;;;4.60;;
48629;SDS011;34426;52.180;4.462;2023-06-26T05:10:58;11.77;;;4.57;;
48629;SDS011;34426;52.180;4.462;2023-06-26T05:13:25;14.90;;;4.75;;
48629;SDS011;34426;52.180;4.462;2023-06-26T05:15:53;13.95;;;4.03;;
48629;SDS011;34426;52.180;4.462;2023-06-26T05:18:23;13.32;;;4.53;;
48629;SDS011;34426;52.180;4.462;2023-06-26T05:20:50;12.82;;;4.55;;
48629;SDS011;34426;52.180;4.462;2023-06-26T05:23:18;11.20;;;4.00;;
48629;SDS011;34426;52.180;4.462;2023-06-26T05:25:46;12.77;;;4.30;;
48629;SDS011;34426;52.180;4.462;2023-06-26T05:28:14;14.73;;;4.47;;
48629;SDS011;34426;52.180;4.462;2023-06-26T05:30:42;18.70;;;4.63;;
48629;SDS011;34426;52.180;4.462;2023-06-26T05:33:11;17.33;;;4.82;;
48629;SDS011;34426;52.180;4.462;2023-06-26T05:35:42;15.95;;;4.53;;
48629;SDS011;34426;52.180;4.462;2023-06-26T05:38:14;16.50;;;4.30;;
48629;SDS011;34426;52.180;4.462;2023-06-26T05:40:45;13.93;;;4.70;;
48629;SDS011;34426;52.180;4.462;2023-06-26T05:43:14;13.10;;;3.75;;
48629;SDS011;34426;52.180;4.462;2023-06-26T05:45:41;12.05;;;3.40;;
48629;SDS011;34426;52.180;4.462;2023-06-26T05:48:09;15.07;;;3.25;;
48629;SDS011;34426;52.180;4.462;2023-06-26T05:50:36;9.55;;;2.97;;
48629;SDS011;34426;52.180;4.462;2023-06-26T05:53:06;14.10;;;3.40;;
48629;SDS011;34426;52.180;4.462;2023-06-26T05:55:34;12.55;;;2.95;;
48629;SDS011;34426;52.180;4.462;2023-06-26T05:58:02;15.23;;;3.25;;
48629;SDS011;34426;52.180;4.462;2023-06-26T06:00:30;12.15;;;3.47;;
48629;SDS011;34426;52.180;4.462;2023-06-26T06:02:59;13.88;;;2.85;;
48629;SDS011;34426;52.180;4.462;2023-06-26T06:05:27;10.48;;;3.38;;
48629;SDS011;34426;52.180;4.462;2023-06-26T06:07:54;10.40;;;2.58;;
48629;SDS011;34426;52.180;4.462;2023-06-26T06:10:23;11.07;;;2.38;;
48629;SDS011;34426;52.180;4.462;2023-06-26T06:12:51;14.10;;;2.80;;
48629;SDS011;34426;52.180;4.462;2023-06-26T06:15:18;15.90;;;2.53;;
48629;SDS011;34426;52.180;4.462;2023-06-26T06:17:46;17.05;;;3.15;;
48629;SDS011;34426;52.180;4.462;2023-06-26T06:20:14;11.98;;;3.00;;
48629;SDS011;34426;52.180;4.462;2023-06-26T06:22:41;20.48;;;2.60;;
48629;SDS011;34426;52.180;4.462;2023-06-26T06:25:09;10.00;;;2.25;;
48629;SDS011;34426;52.180;4.462;2023-06-26T06:27:38;22.00;;;2.78;;
48629;SDS011;34426;52.180;4.462;2023-06-26T06:30:07;13.73;;;2.35;;
48629;SDS011;34426;52.180;4.462;2023-06-26T06:32:36;11.07;;;2.00;;
48629;SDS011;34426;52.180;4.462;2023-06-26T06:35:04;11.93;;;2.30;;
48629;SDS011;34426;52.180;4.462;2023-06-26T06:37:33;9.75;;;2.28;;
48629;SDS011;34426;52.180;4.462;2023-06-26T06:40:00;21.13;;;2.60;;
48629;SDS011;34426;52.180;4.462;2023-06-26T06:42:31;17.25;;;2.65;;
48629;SDS011;34426;52.180;4.462;2023-06-26T06:45:03;13.88;;;3.58;;
48629;SDS011;34426;52.180;4.462;2023-06-26T06:47:32;20.05;;;3.80;;
48629;SDS011;34426;52.180;4.462;2023-06-26T06:49:59;11.30;;;2.35;;
48629;SDS011;34426;52.180;4.462;2023-06-26T06:52:28;17.77;;;2.50;;
48629;SDS011;34426;52.180;4.462;2023-06-26T06:55:00;11.57;;;2.50;;
48629;SDS011;34426;52.180;4.462;2023-06-26T06:57:27;17.65;;;2.35;;
48629;SDS011;34426;52.180;4.462;2023-06-26T07:00:00;15.40;;;3.00;;
48629;SDS011;34426;52.180;4.462;2023-06-26T07:02:32;15.55;;;3.78;;
48629;SDS011;34426;52.180;4.462;2023-06-26T07:05:00;18.45;;;3.20;;
48629;SDS011;34426;52.180;4.462;2023-06-26T07:07:28;13.73;;;2.08;;
48629;SDS011;34426;52.180;4.462;2023-06-26T07:09:57;18.75;;;2.42;;
48629;SDS011;34426;52.180;4.462;2023-06-26T07:12:31;10.93;;;2.10;;
48629;SDS011;34426;52.180;4.462;2023-06-26T07:15:05;16.95;;;2.60;;
48629;SDS011;34426;52.180;4.462;2023-06-26T07:17:32;10.23;;;2.08;;
48629;SDS011;34426;52.180;4.462;2023-06-26T07:20:04;19.27;;;2.40;;
48629;SDS011;34426;52.180;4.462;2023-06-26T07:22:31;14.13;;;2.40;;
48629;SDS011;34426;52.180;4.462;2023-06-26T07:24:58;15.10;;;2.75;;
48629;SDS011;34426;52.180;4.462;2023-06-26T07:27:35;11.18;;;2.35;;
48629;SDS011;34426;52.180;4.462;2023-06-26T07:30:04;14.63;;;3.50;;
48629;SDS011;34426;52.180;4.462;2023-06-26T07:32:36;12.95;;;2.33;;
48629;SDS011;34426;52.180;4.462;2023-06-26T07:35:11;18.88;;;3.03;;
48629;SDS011;34426;52.180;4.462;2023-06-26T07:37:39;12.10;;;2.30;;
48629;SDS011;34426;52.180;4.462;2023-06-26T07:40:08;10.30;;;2.40;;
48629;SDS011;34426;52.180;4.462;2023-06-26T07:42:39;13.55;;;2.58;;
48629;SDS011;34426;52.180;4.462;2023-06-26T07:45:10;10.85;;;2.20;;
48629;SDS011;34426;52.180;4.462;2023-06-26T07:47:38;10.55;;;2.50;;
48629;SDS011;34426;52.180;4.462;2023-06-26T07:50:12;11.60;;;2.67;;
48629;SDS011;34426;52.180;4.462;2023-06-26T07:52:41;9.63;;;2.55;;
48629;SDS011;34426;52.180;4.462;2023-06-26T07:55:09;22.95;;;3.08;;
48629;SDS011;34426;52.180;4.462;2023-06-26T07:57:37;11.77;;;2.50;;
48629;SDS011;34426;52.180;4.462;2023-06-26T08:00:16;11.32;;;2.45;;
48629;SDS011;34426;52.180;4.462;2023-06-26T08:02:44;16.20;;;2.88;;
48629;SDS011;34426;52.180;4.462;2023-06-26T08:05:11;13.15;;;2.20;;
48629;SDS011;34426;52.180;4.462;2023-06-26T08:07:39;11.05;;;3.22;;
48629;SDS011;34426;52.180;4.462;2023-06-26T08:10:07;15.60;;;2.60;;
48629;SDS011;34426;52.180;4.462;2023-06-26T08:12:36;10.48;;;2.75;;
48629;SDS011;34426;52.180;4.462;2023-06-26T08:15:11;16.92;;;2.30;;
48629;SDS011;34426;52.180;4.462;2023-06-26T08:17:44;14.20;;;2.70;;
48629;SDS011;34426;52.180;4.462;2023-06-26T08:20:12;16.25;;;2.80;;
48629;SDS011;34426;52.180;4.462;2023-06-26T08:22:40;14.10;;;2.60;;
48629;SDS011;34426;52.180;4.462;2023-06-26T08:25:08;9.13;;;2.22;;
48629;SDS011;34426;52.180;4.462;2023-06-26T08:27:40;17.83;;;2.88;;
48629;SDS011;34426;52.180;4.462;2023-06-26T08:30:08;10.48;;;2.58;;
48629;SDS011;34426;52.180;4.462;2023-06-26T08:32:41;17.05;;;2.67;;
48629;SDS011;34426;52.180;4.462;2023-06-26T08:35:08;13.82;;;2.72;;
48629;SDS011;34426;52.180;4.462;2023-06-26T08:37:36;15.93;;;3.00;;
48629;SDS011;34426;52.180;4.462;2023-06-26T08:40:04;11.27;;;2.70;;
48629;SDS011;34426;52.180;4.462;2023-06-26T08:42:38;11.52;;;2.72;;
48629;SDS011;34426;52.180;4.462;2023-06-26T08:45:05;12.20;;;2.67;;
48629;SDS011;34426;52.180;4.462;2023-06-26T08:47:34;16.88;;;2.63;;
48629;SDS011;34426;52.180;4.462;2023-06-26T08:50:07;12.70;;;2.60;;
48629;SDS011;34426;52.180;4.462;2023-06-26T08:52:37;20.25;;;3.38;;
48629;SDS011;34426;52.180;4.462;2023-06-26T08:55:10;14.73;;;2.97;;
48629;SDS011;34426;52.180;4.462;2023-06-26T08:57:38;16.05;;;3.10;;
48629;SDS011;34426;52.180;4.462;2023-06-26T09:00:09;16.67;;;3.20;;
48629;SDS011;34426;52.180;4.462;2023-06-26T09:02:40;17.13;;;3.05;;
48629;SDS011;34426;52.180;4.462;2023-06-26T09:05:09;17.30;;;3.10;;
48629;SDS011;34426;52.180;4.462;2023-06-26T09:07:39;12.73;;;2.50;;
48629;SDS011;34426;52.180;4.462;2023-06-26T09:10:05;15.23;;;2.35;;
48629;SDS011;34426;52.180;4.462;2023-06-26T09:12:31;14.65;;;2.78;;
48629;SDS011;34426;52.180;4.462;2023-06-26T09:14:58;11.40;;;2.33;;
48629;SDS011;34426;52.180;4.462;2023-06-26T09:17:26;15.85;;;2.50;;
48629;SDS011;34426;52.180;4.462;2023-06-26T09:19:54;15.57;;;2.80;;
48629;SDS011;34426;52.180;4.462;2023-06-26T09:22:27;20.00;;;3.72;;
48629;SDS011;34426;52.180;4.462;2023-06-26T09:24:58;14.48;;;3.13;;
48629;SDS011;34426;52.180;4.462;2023-06-26T09:27:25;18.20;;;2.63;;
48629;SDS011;34426;52.180;4.462;2023-06-26T09:29:53;7.65;;;2.50;;
48629;SDS011;34426;52.180;4.462;2023-06-26T09:32:21;10.55;;;2.78;;
48629;SDS011;34426;52.180;4.462;2023-06-26T09:34:51;16.38;;;3.38;;
48629;SDS011;34426;52.180;4.462;2023-06-26T09:37:18;13.88;;;2.88;;
48629;SDS011;34426;52.180;4.462;2023-06-26T09:39:46;12.85;;;2.70;;
48629;SDS011;34426;52.180;4.462;2023-06-26T09:42:13;10.85;;;1.90;;
48629;SDS011;34426;52.180;4.462;2023-06-26T09:44:45;11.75;;;2.05;;
48629;SDS011;34426;52.180;4.462;2023-06-26T09:47:15;15.88;;;2.40;;
48629;SDS011;34426;52.180;4.462;2023-06-26T09:49:43;13.10;;;2.58;;
48629;SDS011;34426;52.180;4.462;2023-06-26T09:52:09;16.48;;;3.00;;
48629;SDS011;34426;52.180;4.462;2023-06-26T09:54:40;7.40;;;2.28;;
48629;SDS011;34426;52.180;4.462;2023-06-26T09:57:11;12.75;;;2.33;;
48629;SDS011;34426;52.180;4.462;2023-06-26T09:59:41;13.03;;;2.37;;
48629;SDS011;34426;52.180;4.462;2023-06-26T10:02:09;12.63;;;2.30;;
48629;SDS011;34426;52.180;4.462;2023-06-26T10:04:35;12.93;;;2.13;;
48629;SDS011;34426;52.180;4.462;2023-06-26T10:07:04;14.52;;;2.67;;
48629;SDS011;34426;52.180;4.462;2023-06-26T10:09:31;10.70;;;2.00;;
48629;SDS011;34426;52.180;4.462;2023-06-26T10:12:02;13.48;;;2.35;;
48629;SDS011;34426;52.180;4.462;2023-06-26T10:14:34;14.10;;;2.17;;
48629;SDS011;34426;52.180;4.462;2023-06-26T10:17:01;8.55;;;1.98;;
48629;SDS011;34426;52.180;4.462;2023-06-26T10:19:31;6.22;;;1.92;;
48629;SDS011;34426;52.180;4.462;2023-06-26T10:21:58;12.57;;;2.00;;
48629;SDS011;34426;52.180;4.462;2023-06-26T10:24:26;18.00;;;2.70;;
48629;SDS011;34426;52.180;4.462;2023-06-26T10:26:57;12.00;;;2.30;;
48629;SDS011;34426;52.180;4.462;2023-06-26T10:29:27;12.75;;;2.10;;
48629;SDS011;34426;52.180;4.462;2023-06-26T10:31:57;10.80;;;1.95;;
48629;SDS011;34426;52.180;4.462;2023-06-26T10:34:31;13.73;;;2.38;;
48629;SDS011;34426;52.180;4.462;2023-06-26T10:37:00;18.20;;;2.38;;
48629;SDS011;34426;52.180;4.462;2023-06-26T10:39:26;10.65;;;2.25;;
48629;SDS011;34426;52.180;4.462;2023-06-26T10:41:54;14.40;;;2.08;;
48629;SDS011;34426;52.180;4.462;2023-06-26T10:44:20;10.50;;;2.00;;
48629;SDS011;34426;52.180;4.462;2023-06-26T10:46:49;11.30;;;2.03;;
48629;SDS011;34426;52.180;4.462;2023-06-26T10:49:21;10.18;;;1.83;;
48629;SDS011;34426;52.180;4.462;2023-06-26T10:51:51;9.93;;;2.33;;
48629;SDS011;34426;52.180;4.462;2023-06-26T10:54:18;15.02;;;2.42;;
48629;SDS011;34426;52.180;4.462;2023-06-26T10:56:48;8.30;;;2.00;;
48629;SDS011;34426;52.180;4.462;2023-06-26T10:59:17;14.25;;;1.83;;
48629;SDS011;34426;52.180;4.462;2023-06-26T11:01:46;8.73;;;1.95;;
48629;SDS011;34426;52.180;4.462;2023-06-26T11:04:35;10.00;;;1.90;;
48629;SDS011;34426;52.180;4.462;2023-06-26T11:07:14;11.93;;;2.35;;
48629;SDS011;34426;52.180;4.462;2023-06-26T11:09:54;9.90;;;2.60;;
48629;SDS011;34426;52.180;4.462;2023-06-26T11:12:33;13.63;;;2.70;;
48629;SDS011;34426;52.180;4.462;2023-06-26T11:15:03;7.97;;;2.50;;
48629;SDS011;34426;52.180;4.462;2023-06-26T11:17:35;14.10;;;2.85;;
48629;SDS011;34426;52.180;4.462;2023-06-26T11:20:04;10.43;;;2.60;;
48629;SDS011;34426;52.180;4.462;2023-06-26T11:22:31;7.18;;;2.10;;
48629;SDS011;34426;52.180;4.462;2023-06-26T11:25:03;11.05;;;2.30;;
48629;SDS011;34426;52.180;4.462;2023-06-26T11:27:37;9.38;;;1.95;;
48629;SDS011;34426;52.180;4.462;2023-06-26T11:30:03;10.65;;;2.40;;
48629;SDS011;34426;52.180;4.462;2023-06-26T11:32:33;10.98;;;2.30;;
48629;SDS011;34426;52.180;4.462;2023-06-26T11:34:59;6.47;;;1.77;;
48629;SDS011;34426;52.180;4.462;2023-06-26T11:37:32;15.77;;;2.67;;
48629;SDS011;34426;52.180;4.462;2023-06-26T11:40:15;10.57;;;2.03;;
48629;SDS011;34426;52.180;4.462;2023-06-26T11:42:41;9.32;;;1.80;;
48629;SDS011;34426;52.180;4.462;2023-06-26T11:45:08;6.75;;;1.85;;
48629;SDS011;34426;52.180;4.462;2023-06-26T11:47:42;16.23;;;3.13;;
48629;SDS011;34426;52.180;4.462;2023-06-26T11:50:15;14.13;;;2.30;;
48629;SDS011;34426;52.180;4.462;2023-06-26T11:52:44;11.35;;;2.25;;
48629;SDS011;34426;52.180;4.462;2023-06-26T11:55:18;11.23;;;1.90;;
48629;SDS011;34426;52.180;4.462;2023-06-26T11:57:47;13.98;;;2.28;;
48629;SDS011;34426;52.180;4.462;2023-06-26T12:00:14;9.95;;;1.95;;
48629;SDS011;34426;52.180;4.462;2023-06-26T12:02:45;9.07;;;2.22;;
48629;SDS011;34426;52.180;4.462;2023-06-26T12:05:15;11.48;;;1.80;;
48629;SDS011;34426;52.180;4.462;2023-06-26T12:07:46;6.07;;;2.03;;
48629;SDS011;34426;52.180;4.462;2023-06-26T12:10:21;6.38;;;1.77;;
48629;SDS011;34426;52.180;4.462;2023-06-26T12:12:46;9.80;;;2.17;;
48629;SDS011;34426;52.180;4.462;2023-06-26T12:15:13;10.27;;;2.92;;
48629;SDS011;34426;52.180;4.462;2023-06-26T12:17:40;8.23;;;1.73;;
48629;SDS011;34426;52.180;4.462;2023-06-26T12:20:21;7.38;;;1.60;;
48629;SDS011;34426;52.180;4.462;2023-06-26T12:22:49;11.10;;;2.13;;
48629;SDS011;34426;52.180;4.462;2023-06-26T12:25:22;7.25;;;1.50;;
48629;SDS011;34426;52.180;4.462;2023-06-26T12:27:48;13.93;;;2.15;;
48629;SDS011;34426;52.180;4.462;2023-06-26T12:30:16;7.38;;;2.08;;
48629;SDS011;34426;52.180;4.462;2023-06-26T12:32:46;10.82;;;1.80;;
48629;SDS011;34426;52.180;4.462;2023-06-26T12:35:12;8.90;;;1.73;;
48629;SDS011;34426;52.180;4.462;2023-06-26T12:37:41;9.48;;;2.30;;
48629;SDS011;34426;52.180;4.462;2023-06-26T12:40:16;8.88;;;2.40;;
48629;SDS011;34426;52.180;4.462;2023-06-26T12:42:42;14.30;;;2.13;;
48629;SDS011;34426;52.180;4.462;2023-06-26T12:45:11;11.13;;;2.42;;
48629;SDS011;34426;52.180;4.462;2023-06-26T12:47:40;8.93;;;1.98;;
48629;SDS011;34426;52.180;4.462;2023-06-26T12:50:06;6.05;;;2.00;;
48629;SDS011;34426;52.180;4.462;2023-06-26T12:52:35;8.63;;;2.00;;
48629;SDS011;34426;52.180;4.462;2023-06-26T12:55:05;7.30;;;1.73;;
48629;SDS011;34426;52.180;4.462;2023-06-26T12:57:31;7.82;;;1.80;;
48629;SDS011;34426;52.180;4.462;2023-06-26T12:59:57;7.47;;;1.90;;
48629;SDS011;34426;52.180;4.462;2023-06-26T13:02:25;8.50;;;2.03;;
48629;SDS011;34426;52.180;4.462;2023-06-26T13:04:54;13.90;;;2.08;;
48629;SDS011;34426;52.180;4.462;2023-06-26T13:07:19;11.38;;;2.67;;
48629;SDS011;34426;52.180;4.462;2023-06-26T13:09:45;12.40;;;2.42;;
48629;SDS011;34426;52.180;4.462;2023-06-26T13:12:12;11.35;;;2.40;;
48629;SDS011;34426;52.180;4.462;2023-06-26T13:14:38;10.93;;;2.40;;
48629;SDS011;34426;52.180;4.462;2023-06-26T13:17:03;12.88;;;2.30;;
48629;SDS011;34426;52.180;4.462;2023-06-26T13:19:29;12.15;;;2.35;;
48629;SDS011;34426;52.180;4.462;2023-06-26T13:21:59;9.30;;;1.52;;
48629;SDS011;34426;52.180;4.462;2023-06-26T13:24:32;7.40;;;1.90;;
48629;SDS011;34426;52.180;4.462;2023-06-26T13:26:57;11.70;;;2.40;;
48629;SDS011;34426;52.180;4.462;2023-06-26T13:29:24;6.82;;;1.70;;
48629;SDS011;34426;52.180;4.462;2023-06-26T13:31:50;8.82;;;2.60;;
48629;SDS011;34426;52.180;4.462;2023-06-26T13:34:22;6.22;;;1.60;;
48629;SDS011;34426;52.180;4.462;2023-06-26T13:36:49;6.60;;;1.65;;
48629;SDS011;34426;52.180;4.462;2023-06-26T13:39:18;9.77;;;1.70;;
48629;SDS011;34426;52.180;4.462;2023-06-26T13:44:12;8.65;;;1.50;;
48629;SDS011;34426;52.180;4.462;2023-06-26T13:46:39;10.18;;;1.75;;
48629;SDS011;34426;52.180;4.462;2023-06-26T13:49:05;6.95;;;1.50;;
48629;SDS011;34426;52.180;4.462;2023-06-26T13:51:31;5.75;;;1.73;;
48629;SDS011;34426;52.180;4.462;2023-06-26T13:53:57;8.23;;;1.60;;
48629;SDS011;34426;52.180;4.462;2023-06-26T13:56:23;5.53;;;1.90;;
48629;SDS011;34426;52.180;4.462;2023-06-26T13:58:49;8.85;;;2.45;;
48629;SDS011;34426;52.180;4.462;2023-06-26T14:01:15;4.68;;;1.42;;
48629;SDS011;34426;52.180;4.462;2023-06-26T14:03:42;7.40;;;2.00;;
48629;SDS011;34426;52.180;4.462;2023-06-26T14:06:07;8.65;;;2.05;;
48629;SDS011;34426;52.180;4.462;2023-06-26T14:08:33;3.53;;;1.30;;
48629;SDS011;34426;52.180;4.462;2023-06-26T14:10:58;10.75;;;2.05;;
48629;SDS011;34426;52.180;4.462;2023-06-26T14:13:28;7.30;;;1.50;;
48629;SDS011;34426;52.180;4.462;2023-06-26T14:15:53;7.30;;;1.80;;
48629;SDS011;34426;52.180;4.462;2023-06-26T14:18:19;8.02;;;2.10;;
48629;SDS011;34426;52.180;4.462;2023-06-26T14:20:46;9.60;;;2.05;;
48629;SDS011;34426;52.180;4.462;2023-06-26T14:23:12;8.77;;;1.70;;
48629;SDS011;34426;52.180;4.462;2023-06-26T14:25:40;7.68;;;1.60;;
48629;SDS011;34426;52.180;4.462;2023-06-26T14:28:06;9.27;;;1.90;;
48629;SDS011;34426;52.180;4.462;2023-06-26T14:30:35;11.23;;;1.73;;
48629;SDS011;34426;52.180;4.462;2023-06-26T14:33:00;11.93;;;1.75;;
48629;SDS011;34426;52.180;4.462;2023-06-26T14:35:29;7.55;;;1.45;;
48629;SDS011;34426;52.180;4.462;2023-06-26T14:37:57;6.45;;;1.90;;
48629;SDS011;34426;52.180;4.462;2023-06-26T14:40:24;5.15;;;1.30;;
48629;SDS011;34426;52.180;4.462;2023-06-26T14:42:53;5.70;;;1.65;;
48629;SDS011;34426;52.180;4.462;2023-06-26T14:45:19;8.05;;;1.80;;
48629;SDS011;34426;52.180;4.462;2023-06-26T14:47:45;7.63;;;1.90;;
48629;SDS011;34426;52.180;4.462;2023-06-26T14:50:11;7.15;;;1.73;;
48629;SDS011;34426;52.180;4.462;2023-06-26T14:52:37;14.98;;;2.10;;